Time;durP1;ratioP1;P1;durP2;ratioP2;P2;SDS_P1;SDS_P2;PMS_P1;PMS_P2;Temp;Humidity;BMP_temperature;BMP_pressure;BME280_temperature;BME280_humidity;BME280_pressure;Samples;Min_cycle;Max_cycle;Signal;HPM_P1;HPM_P2
2021/03/22 00:01:05;;;;;;;13.43;9.17;;;;;;;0.96;74.63;99936.60;122865;1105;104393;-83
2021/03/22 00:03:37;;;;;;;13.00;10.05;;;;;;;0.97;74.03;99946.23;123088;1105;104386;-82
2021/03/22 00:06:24;;;;;;;11.08;9.03;;;;;;;0.95;73.53;99947.98;122940;1105;104621;-81
2021/03/22 00:09:05;;;;;;;15.23;10.00;;;;;;;1.02;74.00;99948.89;122954;1105;104239;-81
2021/03/22 00:11:45;;;;;;;17.43;10.80;;;;;;;0.99;73.54;99955.86;123149;1105;104373;-81
2021/03/22 00:14:27;;;;;;;15.73;11.63;;;;;;;1.02;72.83;99956.77;125068;1105;104166;-82
2021/03/22 00:17:00;;;;;;;12.95;8.98;;;;;;;1.00;73.86;99956.76;125189;1105;104315;-85
2021/03/22 00:19:31;;;;;;;12.13;10.25;;;;;;;0.99;72.91;99963.73;125160;1105;104226;-79
2021/03/22 00:22:03;;;;;;;10.82;8.70;;;;;;;0.95;73.98;99966.34;125294;1104;103230;-89
2021/03/22 00:24:32;;;;;;;10.27;8.83;;;;;;;0.88;72.70;99960.19;125232;1105;104219;-80
2021/03/22 00:26:58;;;;;;;15.07;10.97;;;;;;;0.90;73.18;99960.19;123311;1105;104402;-80
2021/03/22 00:29:27;;;;;;;12.55;9.85;;;;;;;0.85;73.42;99965.38;123420;1105;104223;-81
2021/03/22 00:31:54;;;;;;;14.00;9.60;;;;;;;0.88;73.41;99959.28;123482;1106;104157;-80
2021/03/22 00:34:21;;;;;;;12.63;9.03;;;;;;;0.87;73.30;99962.77;123433;1105;104684;-81
2021/03/22 00:36:56;;;;;;;13.72;10.28;;;;;;;0.83;73.10;99962.76;123394;1105;104300;-81
2021/03/22 00:39:33;;;;;;;14.37;10.07;;;;;;;0.74;73.36;99967.94;123451;1105;104290;-79
2021/03/22 00:42:11;;;;;;;19.00;10.77;;;;;;;0.68;72.78;99967.92;123438;1105;104251;-80
2021/03/22 00:44:46;;;;;;;15.55;10.48;;;;;;;0.63;73.28;99967.88;123473;1105;104249;-81
2021/03/22 00:47:15;;;;;;;11.83;9.70;;;;;;;0.65;73.09;99967.88;123513;1105;104313;-80
2021/03/22 00:49:41;;;;;;;13.98;10.00;;;;;;;0.66;73.22;99969.64;123407;1105;104380;-82
2021/03/22 00:52:10;;;;;;;14.70;11.05;;;;;;;0.63;73.56;99962.63;123452;1105;104274;-80
2021/03/22 00:54:47;;;;;;;11.78;9.20;;;;;;;0.61;73.82;99973.97;123383;1105;104271;-80
2021/03/22 00:57:23;;;;;;;14.70;10.37;;;;;;;0.56;73.13;99966.09;123533;1105;104415;-82
2021/03/22 00:59:58;;;;;;;11.45;10.38;;;;;;;0.60;73.09;99972.20;123193;1106;104447;-81
2021/03/22 01:02:32;;;;;;;19.60;9.63;;;;;;;0.54;73.23;99965.19;123373;1104;104258;-81
2021/03/22 01:05:10;;;;;;;11.35;10.18;;;;;;;0.50;73.14;99966.03;123366;1105;104226;-80
2021/03/22 01:07:42;;;;;;;17.25;9.35;;;;;;;0.51;73.10;99973.03;123274;1106;104434;-82
2021/03/22 01:10:42;;;;;;;19.97;9.80;;;;;;;0.54;73.56;99972.18;123053;1105;105830;-81
2021/03/22 01:13:18;;;;;;;9.23;8.43;;;;;;;0.46;72.84;99965.12;123372;1105;104245;-83
2021/03/22 01:15:48;;;;;;;10.80;7.90;;;;;;;0.45;73.65;99965.11;123495;1105;104364;-84
2021/03/22 01:18:24;;;;;;;17.10;10.10;;;;;;;0.38;72.59;99971.18;123601;1105;104239;-81
2021/03/22 01:21:18;;;;;;;10.15;7.72;;;;;;;0.35;73.25;99972.03;123400;1105;104881;-81
2021/03/22 01:23:47;;;;;;;10.90;8.10;;;;;;;0.27;73.00;99974.58;123415;1105;104287;-82
2021/03/22 01:26:34;;;;;;;14.73;8.63;;;;;;;0.28;72.88;99975.44;123557;1104;105178;-81
2021/03/22 01:29:32;;;;;;;9.13;7.73;;;;;;;0.24;73.38;99982.42;123561;1105;104381;-81
2021/03/22 01:32:13;;;;;;;12.70;9.13;;;;;;;0.27;73.59;99981.57;123392;1105;104255;-81
2021/03/22 01:34:54;;;;;;;8.90;6.97;;;;;;;0.24;72.96;99992.00;123424;1105;104280;-84
2021/03/22 01:37:30;;;;;;;13.50;8.80;;;;;;;0.19;73.45;99984.11;123571;1106;104200;-82
2021/03/22 01:40:39;;;;;;;12.20;7.47;;;;;;;0.09;73.95;99983.13;123587;1105;104213;-82
2021/03/22 01:43:45;;;;;;;15.58;8.48;;;;;;;0.10;74.33;99982.27;123505;1105;104261;-82
2021/03/22 01:46:12;;;;;;;9.87;8.93;;;;;;;0.04;73.79;99987.47;123511;1106;104188;-82
2021/03/22 01:48:41;;;;;;;8.67;7.27;;;;;;;0.03;73.96;99992.66;123543;1105;104329;-84
2021/03/22 01:51:09;;;;;;;8.53;7.73;;;;;;;0.03;74.17;99992.66;123460;1105;104370;-81
2021/03/22 01:53:44;;;;;;;7.78;6.67;;;;;;;0.04;74.07;99987.47;123352;1104;105165;-80
2021/03/22 01:56:31;;;;;;;12.37;8.67;;;;;;;0.05;73.20;99990.95;123275;1105;104628;-82
2021/03/22 01:59:15;;;;;;;8.40;7.60;;;;;;;0.11;73.43;99988.41;123464;1106;104229;-81
2021/03/22 02:02:04;;;;;;;11.03;6.87;;;;;;;0.10;73.81;99995.37;123111;1105;104245;-81
2021/03/22 02:04:43;;;;;;;11.40;8.97;;;;;;;0.07;73.23;99995.34;123209;1106;104309;-81
2021/03/22 02:07:14;;;;;;;9.73;8.40;;;;;;;0.03;73.24;99990.05;122847;1106;104601;-82
2021/03/22 02:09:44;;;;;;;10.67;7.17;;;;;;;-0.01;73.01;99994.40;123246;1105;104280;-81
2021/03/22 02:12:25;;;;;;;9.90;7.63;;;;;;;0.03;73.28;99992.66;122706;1105;104628;-83
2021/03/22 02:15:00;;;;;;;9.60;7.42;;;;;;;0.01;73.65;99992.66;122667;1105;104258;-82
2021/03/22 02:17:52;;;;;;;7.83;6.63;;;;;;;0.02;73.42;100002.27;122872;1105;104281;-81
2021/03/22 02:20:42;;;;;;;13.08;7.05;;;;;;;-0.06;73.08;100001.32;122820;1105;104341;-83
2021/03/22 02:23:22;;;;;;;13.10;7.40;;;;;;;-0.03;73.14;99997.01;123008;1105;104326;-83
2021/03/22 02:26:00;;;;;;;10.25;7.00;;;;;;;-0.10;73.83;99992.55;123033;1105;104399;-85
2021/03/22 02:28:41;;;;;;;9.87;8.10;;;;;;;-0.13;73.36;100003.00;123358;1105;104226;-83
2021/03/22 02:31:39;;;;;;;9.43;7.80;;;;;;;-0.11;73.56;100006.49;123347;1105;104252;-82
2021/03/22 02:34:42;;;;;;;8.55;7.72;;;;;;;-0.11;73.88;100009.11;123271;1105;104364;-82
2021/03/22 02:37:42;;;;;;;9.05;7.03;;;;;;;-0.14;73.30;100009.09;122999;1105;104648;-82
2021/03/22 02:40:51;;;;;;;8.13;7.35;;;;;;;-0.12;73.38;100012.61;123157;1105;104316;-84
2021/03/22 02:43:37;;;;;;;9.70;7.77;;;;;;;-0.14;73.58;100016.94;123687;1105;104594;-83
2021/03/22 02:46:09;;;;;;;8.17;7.37;;;;;;;-0.11;73.14;100013.48;123753;1105;105301;-82
2021/03/22 02:48:40;;;;;;;11.48;7.17;;;;;;;-0.10;73.30;100018.73;123674;1105;104325;-83
2021/03/22 02:51:53;;;;;;;10.20;8.00;;;;;;;-0.09;73.11;100027.48;123759;1105;104328;-83
2021/03/22 02:54:35;;;;;;;7.90;7.10;;;;;;;-0.07;72.68;100025.73;123566;1106;104488;-84
2021/03/22 02:57:15;;;;;;;7.55;6.85;;;;;;;-0.06;72.89;100028.36;123717;1105;104350;-83
2021/03/22 02:59:47;;;;;;;15.68;7.45;;;;;;;0.02;72.42;100032.83;123667;1105;104297;-83
2021/03/22 03:02:18;;;;;;;8.03;7.23;;;;;;;0.05;72.81;100038.95;123777;1105;104280;-83
2021/03/22 03:04:46;;;;;;;10.20;9.00;;;;;;;0.02;72.49;100040.67;123563;1106;105082;-84
2021/03/22 03:07:22;;;;;;;10.30;9.20;;;;;;;0.03;71.98;100042.41;123770;1105;104224;-86
2021/03/22 03:09:49;;;;;;;10.63;7.30;;;;;;;0.04;72.20;100041.55;123620;1105;104233;-85
2021/03/22 03:12:22;;;;;;;11.48;7.50;;;;;;;0.05;72.26;100046.80;123718;1105;104358;-86
2021/03/22 03:14:51;;;;;;;14.40;7.77;;;;;;;0.04;71.97;100047.69;123958;1105;104309;-83
2021/03/22 03:17:20;;;;;;;7.42;6.72;;;;;;;0.07;72.07;100049.46;123670;1105;104852;-83
2021/03/22 03:19:49;;;;;;;13.03;8.43;;;;;;;0.00;72.07;100051.14;123609;1105;104251;-84
2021/03/22 03:22:15;;;;;;;14.30;9.55;;;;;;;-0.05;72.10;100051.07;123725;1105;104274;-82
2021/03/22 03:24:49;;;;;;;17.77;13.78;;;;;;;-0.09;72.17;100056.27;123727;1105;104298;-81
2021/03/22 03:27:31;;;;;;;10.77;8.93;;;;;;;-0.09;72.26;100057.13;123718;1105;104366;-84
2021/03/22 03:30:30;;;;;;;10.32;7.92;;;;;;;-0.11;72.40;100060.59;123769;1105;104502;-87
2021/03/22 03:33:08;;;;;;;8.83;6.83;;;;;;;-0.17;72.35;100067.51;123539;1105;104310;-83
2021/03/22 03:35:40;;;;;;;12.00;7.23;;;;;;;-0.14;72.45;100065.80;123683;1105;104338;-83
2021/03/22 03:38:08;;;;;;;10.67;7.67;;;;;;;-0.11;72.42;100065.83;123753;1105;104302;-83
2021/03/22 03:40:44;;;;;;;8.50;6.93;;;;;;;-0.10;72.36;100068.45;123670;1106;104447;-84
2021/03/22 03:43:18;;;;;;;8.60;7.53;;;;;;;-0.11;71.92;100077.16;123787;1105;104395;-85
2021/03/22 03:45:58;;;;;;;8.73;7.80;;;;;;;-0.10;71.99;100078.06;123708;1105;104236;-83
2021/03/22 03:48:40;;;;;;;12.80;7.50;;;;;;;-0.14;72.27;100081.50;123767;1104;104393;-83
2021/03/22 03:51:20;;;;;;;9.90;8.93;;;;;;;-0.11;72.21;100086.77;123674;1105;104737;-84
2021/03/22 03:54:02;;;;;;;9.07;7.60;;;;;;;-0.05;71.83;100082.48;123743;1105;104166;-82
2021/03/22 03:56:38;;;;;;;8.67;7.80;;;;;;;-0.01;72.19;100084.27;123718;1105;104220;-82
2021/03/22 03:59:19;;;;;;;12.90;7.97;;;;;;;-0.05;71.82;100085.10;123768;1106;104973;-85
2021/03/22 04:01:54;;;;;;;12.60;8.93;;;;;;;0.02;71.86;100090.42;123907;1106;104313;-83
2021/03/22 04:04:42;;;;;;;11.03;8.47;;;;;;;-0.02;71.95;100090.36;123710;1105;104390;-84
2021/03/22 04:07:32;;;;;;;12.37;10.37;;;;;;;-0.03;71.50;100098.20;123686;1105;104531;-82
2021/03/22 04:10:15;;;;;;;15.40;11.80;;;;;;;-0.01;71.17;100093.88;123509;1105;104734;-86
2021/03/22 04:12:50;;;;;;;12.20;10.77;;;;;;;0.02;71.08;100093.03;123657;1105;104312;-82
2021/03/22 04:15:18;;;;;;;10.85;9.65;;;;;;;0.03;70.70;100095.67;123708;1105;105574;-83
2021/03/22 04:17:51;;;;;;;10.80;9.80;;;;;;;-0.01;71.60;100093.88;123959;1105;104614;-84
2021/03/22 04:20:18;;;;;;;12.70;10.30;;;;;;;0.02;71.08;100098.27;123707;1105;104309;-83
2021/03/22 04:22:45;;;;;;;11.17;10.00;;;;;;;0.03;70.46;100094.77;123538;1106;104323;-84
2021/03/22 04:25:14;;;;;;;13.13;11.83;;;;;;;0.04;71.23;100096.53;123721;1105;104299;-83
2021/03/22 04:27:41;;;;;;;11.57;10.38;;;;;;;-0.01;70.67;100099.11;123675;1106;104140;-83
2021/03/22 04:30:09;;;;;;;14.50;11.33;;;;;;;-0.02;71.92;100098.22;123632;1105;104329;-82
2021/03/22 04:32:36;;;;;;;14.23;11.20;;;;;;;-0.03;70.77;100099.10;123736;1105;104681;-83
2021/03/22 04:35:22;;;;;;;15.78;14.23;;;;;;;-0.01;70.91;100099.98;123693;1105;104236;-83
2021/03/22 04:37:52;;;;;;;13.75;11.05;;;;;;;-0.06;71.45;100099.05;123845;1105;104230;-85
2021/03/22 04:40:28;;;;;;;18.07;12.47;;;;;;;-0.06;71.47;100100.80;123695;1105;104226;-85
2021/03/22 04:42:58;;;;;;;17.10;11.90;;;;;;;-0.11;71.21;100107.70;123485;1105;104371;-85
2021/03/22 04:45:29;;;;;;;13.40;10.70;;;;;;;-0.08;70.98;100102.50;123125;1105;104239;-84
2021/03/22 04:47:55;;;;;;;16.42;11.97;;;;;;;-0.06;71.36;100109.52;123145;1105;104380;-83
2021/03/22 04:50:26;;;;;;;13.62;10.85;;;;;;;-0.03;71.95;100108.67;123082;1105;104226;-83
2021/03/22 04:53:13;;;;;;;13.23;10.70;;;;;;;-0.05;71.68;100108.66;123018;1105;104251;-83
2021/03/22 04:56:08;;;;;;;18.27;10.98;;;;;;;-0.02;71.75;100106.07;123105;1105;104387;-82
2021/03/22 04:59:02;;;;;;;13.53;11.45;;;;;;;-0.02;72.12;100108.69;123116;1105;104319;-84
2021/03/22 05:01:58;;;;;;;11.60;10.40;;;;;;;0.10;71.71;100101.85;122846;1105;104361;-83
2021/03/22 05:04:54;;;;;;;14.10;10.60;;;;;;;0.17;71.70;100101.05;123212;1105;104335;-83
2021/03/22 05:07:21;;;;;;;11.53;10.33;;;;;;;0.22;71.35;100093.26;123521;1105;104281;-82
2021/03/22 05:09:52;;;;;;;12.67;10.33;;;;;;;0.28;71.98;100095.92;123760;1105;104380;-82
2021/03/22 05:12:18;;;;;;;14.10;10.80;;;;;;;0.28;72.01;100101.16;123688;1104;104233;-82
2021/03/22 05:14:46;;;;;;;12.90;10.43;;;;;;;0.26;71.76;100095.91;123525;1105;104335;-83
2021/03/22 05:17:17;;;;;;;15.27;10.90;;;;;;;0.25;71.92;100094.14;123669;1106;104159;-82
2021/03/22 05:19:47;;;;;;;12.70;9.93;;;;;;;0.23;72.71;100103.74;123764;1105;104434;-90
2021/03/22 05:22:16;;;;;;;15.67;11.80;;;;;;;0.21;72.66;100102.84;123532;1105;104150;-82
2021/03/22 05:24:46;;;;;;;14.35;12.40;;;;;;;0.22;72.84;100103.73;123733;1105;104781;-84
2021/03/22 05:27:12;;;;;;;13.27;10.53;;;;;;;0.26;72.69;100103.77;123634;1105;104364;-84
2021/03/22 05:29:39;;;;;;;13.62;8.68;;;;;;;0.28;73.23;100102.06;123672;1105;104226;-83
2021/03/22 05:32:31;;;;;;;14.13;10.33;;;;;;;0.32;73.20;100105.56;123686;1105;104326;-81
2021/03/22 05:35:04;;;;;;;16.70;10.63;;;;;;;0.32;72.55;100103.84;123603;1105;104373;-81
2021/03/22 05:37:47;;;;;;;15.80;10.47;;;;;;;0.41;72.61;100108.28;123465;1105;104268;-86
2021/03/22 05:41:00;;;;;;;15.60;12.00;;;;;;;0.44;73.18;100110.95;123573;1106;104290;-82
2021/03/22 05:43:42;;;;;;;12.85;10.05;;;;;;;0.45;72.79;100111.82;123643;1106;104336;-82
2021/03/22 05:46:21;;;;;;;16.93;10.85;;;;;;;0.54;73.20;100111.05;123654;1105;104348;-81
2021/03/22 05:49:04;;;;;;;19.90;13.50;;;;;;;0.58;73.01;100111.08;123532;1105;104287;-82
2021/03/22 05:52:11;;;;;;;12.67;11.33;;;;;;;0.59;72.96;100118.08;123376;1105;104820;-81
2021/03/22 05:55:16;;;;;;;10.90;9.10;;;;;;;0.65;72.77;100128.64;123445;1106;104425;-83
2021/03/22 05:58:30;;;;;;;12.78;8.88;;;;;;;0.68;72.43;100133.03;123638;1105;104136;-82
2021/03/22 06:01:05;;;;;;;16.12;13.28;;;;;;;0.67;72.72;100133.89;123680;1105;104185;-83
2021/03/22 06:03:49;;;;;;;24.55;16.75;;;;;;;0.72;73.89;100132.20;123470;1106;104232;-82
2021/03/22 06:06:24;;;;;;;14.93;11.40;;;;;;;0.76;73.24;100141.84;123390;1105;104334;-82
2021/03/22 06:09:10;;;;;;;16.02;12.35;;;;;;;0.82;73.23;100151.50;123360;1105;104752;-84
2021/03/22 06:11:49;;;;;;;19.37;12.97;;;;;;;0.92;73.57;100147.20;123559;1105;104329;-82
2021/03/22 06:14:44;;;;;;;19.73;13.23;;;;;;;0.92;73.10;100149.83;123691;1105;104223;-81
2021/03/22 06:17:20;;;;;;;17.20;12.27;;;;;;;1.04;73.09;100143.81;123581;1105;104223;-81
2021/03/22 06:20:18;;;;;;;16.27;10.63;;;;;;;1.08;72.67;100149.11;123456;1105;104347;-80
2021/03/22 06:22:45;;;;;;;19.02;11.68;;;;;;;1.19;72.39;100156.16;123326;1106;104229;-87
2021/03/22 06:25:21;;;;;;;14.15;11.05;;;;;;;1.24;73.07;100162.33;123473;1105;104140;-83
2021/03/22 06:28:20;;;;;;;13.38;11.95;;;;;;;1.28;72.17;100167.63;123431;1105;104211;-82
2021/03/22 06:31:00;;;;;;;13.30;11.63;;;;;;;1.36;72.38;100167.70;123291;1105;104254;-81
2021/03/22 06:33:41;;;;;;;17.17;11.23;;;;;;;1.45;72.70;100172.11;123302;1105;104786;-82
2021/03/22 06:36:21;;;;;;;15.23;12.25;;;;;;;1.49;71.95;100168.64;123296;1105;104233;-82
2021/03/22 06:38:56;;;;;;;14.45;11.65;;;;;;;1.57;72.85;100176.57;123717;1105;104278;-83
2021/03/22 06:41:34;;;;;;;19.55;13.08;;;;;;;1.64;72.29;100178.36;123368;1105;104482;-81
2021/03/22 06:44:16;;;;;;;16.43;12.63;;;;;;;1.66;71.85;100180.13;123321;1105;104358;-82
2021/03/22 06:47:06;;;;;;;21.25;13.80;;;;;;;1.62;71.38;100178.35;122992;1105;104389;-87
2021/03/22 06:49:36;;;;;;;25.35;13.35;;;;;;;1.67;72.02;100183.65;123266;1105;104316;-82
2021/03/22 06:52:09;;;;;;;16.52;12.47;;;;;;;1.73;72.07;100186.29;123190;1106;104245;-80
2021/03/22 06:54:42;;;;;;;18.55;12.37;;;;;;;1.78;72.46;100187.20;123190;1105;104376;-81
2021/03/22 06:57:18;;;;;;;19.67;12.60;;;;;;;1.79;72.40;100193.35;123024;1106;104746;-80
2021/03/22 07:00:10;;;;;;;14.10;11.90;;;;;;;1.86;72.39;100202.14;123213;1106;104451;-81
2021/03/22 07:02:44;;;;;;;18.83;13.03;;;;;;;1.95;72.12;100197.81;123186;1105;104223;-81
2021/03/22 07:05:32;;;;;;;12.83;10.77;;;;;;;2.02;71.85;100206.60;123404;1105;104301;-81
2021/03/22 07:08:18;;;;;;;13.55;12.15;;;;;;;2.05;71.83;100203.11;122954;1108;104270;-83
2021/03/22 07:10:45;;;;;;;19.35;12.15;;;;;;;2.13;71.93;100207.55;122758;1108;104355;-83
2021/03/22 07:14:04;;;;;;;21.60;13.68;;;;;;;2.18;72.04;100210.19;122510;1112;104931;-81
2021/03/22 07:16:33;;;;;;;18.27;13.22;;;;;;;2.21;71.26;100201.44;122290;1112;104252;-81
2021/03/22 07:19:18;;;;;;;20.80;14.20;;;;;;;2.26;71.57;100215.48;122613;1109;104489;-81
2021/03/22 07:21:51;;;;;;;26.45;19.82;;;;;;;2.26;70.67;100213.72;122828;1109;104568;-85
2021/03/22 07:24:41;;;;;;;17.20;15.13;;;;;;;2.25;70.57;100214.58;122557;1109;104731;-82
2021/03/22 07:27:26;;;;;;;17.57;14.17;;;;;;;2.29;70.35;100215.48;122644;1109;104413;-82
2021/03/22 07:30:22;;;;;;;15.38;12.68;;;;;;;2.29;70.03;100221.64;122916;1108;104441;-80
2021/03/22 07:33:09;;;;;;;21.25;16.73;;;;;;;2.29;70.12;100226.89;122752;1109;104322;-80
2021/03/22 07:35:54;;;;;;;22.30;14.95;;;;;;;2.36;70.67;100225.17;122732;1109;104482;-80
2021/03/22 07:38:30;;;;;;;27.67;17.60;;;;;;;2.48;70.37;100219.95;122818;1108;104363;-82
2021/03/22 07:41:21;;;;;;;18.67;14.85;;;;;;;2.55;69.73;100235.77;122802;1109;104990;-81
2021/03/22 07:43:58;;;;;;;20.65;14.45;;;;;;;2.68;70.79;100242.82;122787;1109;104774;-84
2021/03/22 07:46:50;;;;;;;21.77;15.67;;;;;;;2.81;70.60;100234.09;122906;1105;104249;-80
2021/03/22 07:49:33;;;;;;;24.55;16.17;;;;;;;2.99;70.03;100238.50;123086;1105;104226;-80
2021/03/22 07:52:27;;;;;;;28.98;19.75;;;;;;;3.14;69.42;100242.91;122915;1105;104229;-80
2021/03/22 07:55:09;;;;;;;22.87;17.10;;;;;;;3.28;67.94;100236.78;122879;1105;104354;-79
2021/03/22 07:58:12;;;;;;;20.13;14.23;;;;;;;3.26;68.62;100233.28;123563;1105;104488;-82
2021/03/22 08:00:52;;;;;;;24.67;16.40;;;;;;;3.24;68.97;100245.55;123055;1109;104996;-82
2021/03/22 08:03:28;;;;;;;21.30;16.40;;;;;;;3.30;68.01;100250.83;123148;1105;104206;-81
2021/03/22 08:06:17;;;;;;;17.03;14.10;;;;;;;3.30;67.96;100256.09;123003;1105;104613;-83
2021/03/22 08:08:53;;;;;;;15.67;13.27;;;;;;;3.21;67.56;100256.95;123288;1105;104691;-82
2021/03/22 08:11:22;;;;;;;14.83;12.23;;;;;;;3.20;68.86;100271.01;123070;1105;104226;-81
2021/03/22 08:14:03;;;;;;;20.95;15.50;;;;;;;3.17;68.81;100268.34;123363;1105;104392;-82
2021/03/22 08:16:53;;;;;;;26.10;14.20;;;;;;;3.15;69.03;100268.35;123187;1105;104425;-84
2021/03/22 08:19:31;;;;;;;16.80;12.33;;;;;;;3.16;68.71;100272.75;123219;1105;104377;-85
2021/03/22 08:22:19;;;;;;;20.90;13.30;;;;;;;3.10;69.09;100285.88;123348;1106;104785;-81
2021/03/22 08:25:28;;;;;;;17.50;12.43;;;;;;;2.90;68.92;100277.06;123075;1105;104238;-81
2021/03/22 08:28:26;;;;;;;18.30;11.37;;;;;;;2.87;69.63;100277.07;123076;1105;104833;-81
2021/03/22 08:31:34;;;;;;;18.67;9.60;;;;;;;2.87;69.16;100270.05;123050;1104;104379;-80
2021/03/22 08:34:39;;;;;;;14.00;10.83;;;;;;;2.96;69.44;100256.92;123233;1105;104316;-81
2021/03/22 08:37:16;;;;;;;13.60;10.63;;;;;;;3.25;69.21;100265.73;123152;1105;105012;-82
2021/03/22 08:39:50;;;;;;;15.20;11.00;;;;;;;3.51;68.77;100263.13;123115;1105;104390;-80
2021/03/22 08:42:21;;;;;;;16.27;11.23;;;;;;;3.71;68.03;100257.86;122991;1105;104495;-82
2021/03/22 08:44:59;;;;;;;11.88;10.65;;;;;;;3.91;68.17;100254.34;123151;1105;104303;-84
2021/03/22 08:47:43;;;;;;;12.78;9.35;;;;;;;4.05;67.36;100263.08;122902;1105;104200;-80
2021/03/22 08:50:14;;;;;;;9.13;8.25;;;;;;;4.27;65.81;100258.64;122903;1105;104304;-83
2021/03/22 08:53:00;;;;;;;15.30;10.47;;;;;;;4.45;66.66;100268.27;123476;1105;104418;-82
2021/03/22 08:55:40;;;;;;;18.57;10.83;;;;;;;4.69;65.89;100267.29;122982;1105;104312;-81
2021/03/22 08:58:38;;;;;;;13.57;9.87;;;;;;;4.68;65.15;100272.58;123286;1105;104520;-81
2021/03/22 09:01:08;;;;;;;14.55;9.48;;;;;;;4.59;64.46;100272.62;123249;1105;104251;-83
2021/03/22 09:03:51;;;;;;;17.77;9.98;;;;;;;4.46;64.81;100271.77;123247;1105;104474;-84
2021/03/22 09:06:27;;;;;;;14.40;10.08;;;;;;;4.34;64.27;100273.58;123590;1105;104249;-83
2021/03/22 09:09:00;;;;;;;18.93;10.03;;;;;;;4.32;64.79;100266.56;123600;1105;104293;-86
2021/03/22 09:11:29;;;;;;;18.33;10.83;;;;;;;4.33;65.21;100263.02;123592;1105;104325;-80
2021/03/22 09:13:57;;;;;;;12.40;8.57;;;;;;;4.33;64.92;100266.55;123310;1105;104380;-84
2021/03/22 09:16:24;;;;;;;19.03;9.47;;;;;;;4.39;64.67;100273.55;123301;1105;104677;-85
2021/03/22 09:19:11;;;;;;;13.58;10.05;;;;;;;4.94;64.34;100269.79;123321;1105;104719;-82
2021/03/22 09:21:47;;;;;;;12.40;10.50;;;;;;;5.05;64.22;100266.22;123451;1105;104290;-83
2021/03/22 09:24:36;;;;;;;10.63;6.90;;;;;;;5.16;62.74;100259.13;123418;1105;104176;-83
2021/03/22 09:27:24;;;;;;;10.37;7.67;;;;;;;5.39;62.36;100260.73;123243;1105;104252;-81
2021/03/22 09:30:32;;;;;;;7.03;6.07;;;;;;;5.86;60.86;100255.06;123338;1105;104387;-85
2021/03/22 09:32:59;;;;;;;7.95;7.15;;;;;;;6.60;58.97;100263.98;123040;1105;104705;-82
2021/03/22 09:35:48;;;;;;;7.67;6.87;;;;;;;7.80;58.67;100253.41;123244;1105;104236;-82
2021/03/22 09:38:42;;;;;;;9.57;7.07;;;;;;;9.64;52.34;100252.24;123700;1105;104300;-83
2021/03/22 09:41:08;;;;;;;9.43;6.60;;;;;;;11.19;50.52;100255.96;123394;1105;106083;-81
2021/03/22 09:43:36;;;;;;;12.65;6.30;;;;;;;12.33;46.94;100244.17;123466;1105;105148;-82
2021/03/22 09:46:25;;;;;;;7.53;6.33;;;;;;;12.58;43.42;100255.75;123414;1105;105210;-81
2021/03/22 09:49:20;;;;;;;6.00;5.40;;;;;;;13.10;42.82;100253.79;123541;1105;104846;-84
2021/03/22 09:51:51;;;;;;;8.50;6.17;;;;;;;14.90;42.02;100248.88;123529;1105;104248;-84
2021/03/22 09:54:41;;;;;;;6.63;5.20;;;;;;;14.90;39.46;100244.39;123456;1106;104219;-83
2021/03/22 09:57:47;;;;;;;8.50;5.17;;;;;;;14.26;40.29;100240.11;123230;1105;104325;-81
2021/03/22 10:00:34;;;;;;;7.97;4.60;;;;;;;13.11;41.17;100246.63;122950;1108;104388;-82
2021/03/22 10:03:39;;;;;;;5.87;4.30;;;;;;;12.11;42.62;100254.73;123133;1106;104251;-86
2021/03/22 10:06:39;;;;;;;8.25;4.47;;;;;;;11.70;43.32;100246.31;123099;1105;104369;-80
2021/03/22 10:09:12;;;;;;;13.48;6.20;;;;;;;12.19;42.34;100255.33;122841;1105;104216;-81
2021/03/22 10:11:43;;;;;;;10.10;6.70;;;;;;;13.13;39.79;100252.77;123352;1105;104326;-85
2021/03/22 10:14:19;;;;;;;10.05;6.10;;;;;;;14.67;38.38;100248.98;122926;1105;104373;-81
2021/03/22 10:16:49;;;;;;;9.93;6.78;;;;;;;16.37;37.60;100247.89;123136;1105;104386;-83
2021/03/22 10:19:22;;;;;;;10.30;5.67;;;;;;;17.80;34.09;100244.44;123242;1105;104299;-81
2021/03/22 10:21:53;;;;;;;10.10;5.55;;;;;;;19.18;31.20;100247.70;123163;1105;104297;-85
2021/03/22 10:24:42;;;;;;;9.05;5.15;;;;;;;20.66;30.42;100238.67;123222;1105;104389;-83
2021/03/22 10:27:29;;;;;;;5.93;4.60;;;;;;;21.72;27.46;100232.80;122968;1105;104229;-82
2021/03/22 10:30:18;;;;;;;6.63;4.77;;;;;;;22.58;25.36;100229.84;123110;1105;104333;-84
2021/03/22 10:32:58;;;;;;;7.25;4.55;;;;;;;23.44;24.64;100225.59;122880;1105;104351;-82
2021/03/22 10:35:29;;;;;;;8.10;5.03;;;;;;;23.81;23.61;100221.64;123017;1105;104389;-82
2021/03/22 10:37:57;;;;;;;10.50;5.50;;;;;;;24.07;22.29;100221.29;122852;1105;104322;-81
2021/03/22 10:40:26;;;;;;;7.57;5.10;;;;;;;22.98;22.47;100227.52;122793;1105;104219;-82
2021/03/22 10:42:54;;;;;;;6.53;5.17;;;;;;;23.27;23.57;100232.45;122906;1105;104219;-81
2021/03/22 10:45:24;;;;;;;8.20;5.97;;;;;;;22.51;23.26;100227.64;123002;1105;104960;-82
2021/03/22 10:47:52;;;;;;;8.07;5.93;;;;;;;22.40;24.08;100224.04;122833;1106;104341;-86
2021/03/22 10:50:22;;;;;;;10.83;5.47;;;;;;;22.83;22.98;100228.74;122636;1105;104236;-80
2021/03/22 10:53:11;;;;;;;9.45;6.12;;;;;;;21.64;23.60;100225.24;122878;1105;104274;-82
2021/03/22 10:55:46;;;;;;;9.60;5.67;;;;;;;19.32;25.14;100230.59;123298;1105;104287;-81
2021/03/22 10:58:35;;;;;;;7.27;5.63;;;;;;;17.65;27.67;100230.05;123010;1105;104406;-84
2021/03/22 11:01:05;;;;;;;7.17;5.07;;;;;;;16.23;30.05;100224.41;123072;1105;104206;-83
2021/03/22 11:03:34;;;;;;;10.90;6.35;;;;;;;14.71;31.49;100242.57;123171;1105;104830;-82
2021/03/22 11:06:14;;;;;;;10.23;6.13;;;;;;;13.80;33.85;100233.13;123492;1105;104334;-81
2021/03/22 11:09:03;;;;;;;6.87;5.08;;;;;;;13.03;34.98;100229.09;122974;1105;104238;-89
2021/03/22 11:11:37;;;;;;;8.28;4.75;;;;;;;12.25;35.99;100230.23;123169;1106;105372;-80
2021/03/22 11:14:31;;;;;;;6.03;5.35;;;;;;;11.59;36.14;100233.34;123229;1105;104335;-82
2021/03/22 11:17:10;;;;;;;7.53;4.35;;;;;;;11.04;37.79;100228.00;123215;1105;104309;-80
2021/03/22 11:20:05;;;;;;;4.78;3.60;;;;;;;10.66;38.39;100238.01;122967;1106;104248;-81
2021/03/22 11:22:36;;;;;;;11.87;5.23;;;;;;;10.49;38.98;100228.73;122946;1105;104970;-83
2021/03/22 11:25:42;;;;;;;6.08;5.12;;;;;;;10.13;39.44;100228.81;123168;1105;104284;-82
2021/03/22 11:28:20;;;;;;;8.00;5.70;;;;;;;9.56;39.40;100230.30;123003;1105;104361;-82
2021/03/22 11:30:49;;;;;;;5.67;4.10;;;;;;;9.18;41.57;100232.97;123200;1105;104386;-85
2021/03/22 11:33:22;;;;;;;6.67;4.15;;;;;;;8.87;42.01;100223.02;123337;1105;104660;-83
2021/03/22 11:36:04;;;;;;;7.10;4.40;;;;;;;8.53;42.35;100229.06;123405;1106;104310;-81
2021/03/22 11:38:43;;;;;;;7.53;4.90;;;;;;;8.20;42.17;100227.94;123144;1105;104288;-82
2021/03/22 11:41:34;;;;;;;6.80;4.07;;;;;;;7.98;42.51;100233.66;123674;1105;104277;-81
2021/03/22 11:44:30;;;;;;;6.90;4.30;;;;;;;7.89;43.67;100230.27;123570;1105;104344;-81
2021/03/22 11:47:37;;;;;;;7.42;4.42;;;;;;;7.65;42.91;100230.69;123281;1105;104699;-82
2021/03/22 11:50:28;;;;;;;6.03;5.00;;;;;;;7.20;45.19;100257.88;123124;1105;104393;-81
2021/03/22 11:53:07;;;;;;;4.05;3.60;;;;;;;6.89;46.30;100251.27;122941;1105;104229;-83
2021/03/22 11:55:40;;;;;;;6.20;4.33;;;;;;;6.77;47.45;100250.55;123032;1106;104246;-80
2021/03/22 11:58:43;;;;;;;4.77;3.17;;;;;;;6.59;47.53;100251.65;122748;1105;104441;-82
2021/03/22 12:01:18;;;;;;;13.43;3.93;;;;;;;6.46;48.13;100237.69;123119;1105;104786;-80
2021/03/22 12:04:05;;;;;;;6.47;5.12;;;;;;;6.33;48.56;100241.37;123017;1105;104220;-82
2021/03/22 12:06:53;;;;;;;5.40;4.20;;;;;;;6.33;49.16;100233.44;123081;1106;104229;-83